createdAt,value
2018-09-12T00:00:03.742Z,5.07
2018-09-12T00:02:32.441Z,4.27
2018-09-12T00:05:01.085Z,5.10
2018-09-12T00:07:28.656Z,4.90
2018-09-12T00:09:56.209Z,4.87
2018-09-12T00:12:23.765Z,4.80
2018-09-12T00:14:52.089Z,4.50
2018-09-12T00:17:19.645Z,4.50
2018-09-12T00:19:47.201Z,4.40
2018-09-12T00:22:14.757Z,4.60
2018-09-12T00:24:43.294Z,4.37
2018-09-12T00:27:10.897Z,5.50
2018-09-12T00:29:40.399Z,4.77
2018-09-12T00:32:07.964Z,4.97
2018-09-12T00:34:35.524Z,4.97
2018-09-12T00:37:03.089Z,4.80
2018-09-12T00:39:30.652Z,4.70
2018-09-12T00:41:58.213Z,4.80
2018-09-12T00:44:25.769Z,4.90
2018-09-12T00:46:53.330Z,5.07
2018-09-12T00:49:20.887Z,5.20
2018-09-12T00:51:48.461Z,4.80
2018-09-12T00:54:17.958Z,5.10
2018-09-12T00:56:45.518Z,5.33
2018-09-12T00:59:13.081Z,4.50
2018-09-12T01:01:40.643Z,4.50
2018-09-12T01:04:08.210Z,5.13
2018-09-12T01:06:36.537Z,4.70
2018-09-12T01:09:04.104Z,5.23
2018-09-12T01:11:31.675Z,5.23
2018-09-12T01:13:59.233Z,5.40
2018-09-12T01:16:26.785Z,5.40
2018-09-12T01:18:54.344Z,5.23
2018-09-12T01:21:22.873Z,5.10
2018-09-12T01:23:50.435Z,5.90
2018-09-12T01:26:18.009Z,5.10
2018-09-12T01:28:45.573Z,5.33
2018-09-12T01:31:13.141Z,5.70
2018-09-12T01:33:40.702Z,5.13
2018-09-12T01:36:08.266Z,5.33
2018-09-12T01:38:36.755Z,5.07
2018-09-12T01:41:04.322Z,5.27
2018-09-12T01:43:31.882Z,5.50
2018-09-12T01:46:01.130Z,5.13
2018-09-12T01:48:28.956Z,5.37
2018-09-12T01:50:57.289Z,5.23
2018-09-12T01:53:24.852Z,5.10
2018-09-12T01:55:52.429Z,5.30
2018-09-12T01:58:21.937Z,5.93
2018-09-12T02:00:49.507Z,5.63
2018-09-12T02:03:17.070Z,5.17
2018-09-12T02:05:44.640Z,5.70
2018-09-12T02:08:12.214Z,5.50
2018-09-12T02:10:39.781Z,5.30
2018-09-12T02:13:07.432Z,5.67
2018-09-12T02:15:34.998Z,5.65
2018-09-12T02:18:02.569Z,6.13
2018-09-12T02:20:30.130Z,5.30
2018-09-12T02:22:57.685Z,5.63
2018-09-12T02:25:25.241Z,5.47
2018-09-12T02:27:54.743Z,5.10
2018-09-12T02:30:23.307Z,5.40
2018-09-12T02:32:50.894Z,5.67
2018-09-12T02:35:18.466Z,6.07
2018-09-12T02:37:46.035Z,5.30
2018-09-12T02:40:15.323Z,5.60
2018-09-12T02:42:42.886Z,5.30
2018-09-12T02:45:11.437Z,6.50
2018-09-12T02:47:39.941Z,5.40
2018-09-12T02:50:07.505Z,5.40
2018-09-12T02:52:35.082Z,5.67
2018-09-12T02:55:02.641Z,5.80
2018-09-12T02:57:30.220Z,5.90
2018-09-12T02:59:59.005Z,6.13
2018-09-12T03:02:26.577Z,6.00
2018-09-12T03:04:54.137Z,6.70
2018-09-12T03:07:21.707Z,5.90
2018-09-12T03:09:49.274Z,6.10
2018-09-12T03:12:18.768Z,6.50
2018-09-12T03:14:46.338Z,6.00
2018-09-12T03:17:14.670Z,5.90
2018-09-12T03:19:42.235Z,5.73
2018-09-12T03:22:09.806Z,6.70
2018-09-12T03:24:37.373Z,6.30
2018-09-12T03:27:04.933Z,6.60
2018-09-12T03:29:34.445Z,6.50
2018-09-12T03:32:02.022Z,6.27
2018-09-12T03:34:30.354Z,6.87
2018-09-12T03:36:57.914Z,6.80
2018-09-12T03:39:25.494Z,5.97
2018-09-12T03:41:53.068Z,6.17
2018-09-12T03:44:21.393Z,6.70
2018-09-12T03:46:48.953Z,6.27
2018-09-12T03:49:16.523Z,6.63
2018-09-12T03:51:45.043Z,6.47
2018-09-12T03:54:13.377Z,6.47
2018-09-12T03:56:40.946Z,6.40
2018-09-12T03:59:08.509Z,6.27
2018-09-12T04:01:36.077Z,6.33
2018-09-12T04:04:04.421Z,5.50
2018-09-12T04:06:32.950Z,6.17
2018-09-12T04:09:00.506Z,6.57
2018-09-12T04:11:28.064Z,6.33
2018-09-12T04:13:56.417Z,6.43
2018-09-12T04:16:23.978Z,6.80
2018-09-12T04:18:51.543Z,6.00
2018-09-12T04:21:21.061Z,6.83
2018-09-12T04:23:48.630Z,7.00
2018-09-12T04:26:16.191Z,6.73
2018-09-12T04:28:43.762Z,6.50
2018-09-12T04:31:11.326Z,6.77
2018-09-12T04:33:38.883Z,7.70
2018-09-12T04:36:06.441Z,6.70
2018-09-12T04:38:34.009Z,6.97
2018-09-12T04:41:01.587Z,7.00
2018-09-12T04:43:29.155Z,7.10
2018-09-12T04:45:56.727Z,6.17
2018-09-12T04:48:25.110Z,6.57
2018-09-12T04:50:52.649Z,7.00
2018-09-12T04:53:20.210Z,5.97
2018-09-12T04:55:47.799Z,6.30
2018-09-12T04:58:15.363Z,7.40
2018-09-12T05:00:42.930Z,6.73
2018-09-12T05:03:12.417Z,7.93
2018-09-12T05:05:39.986Z,7.80
2018-09-12T05:08:07.571Z,7.10
2018-09-12T05:10:35.130Z,6.77
2018-09-12T05:13:02.693Z,7.07
2018-09-12T05:15:30.259Z,7.33
2018-09-12T05:17:57.829Z,6.77
2018-09-12T05:20:25.393Z,7.63
2018-09-12T05:22:55.669Z,7.20
2018-09-12T05:25:23.230Z,6.77
2018-09-12T05:27:50.817Z,7.47
2018-09-12T05:30:18.386Z,7.20
2018-09-12T05:32:45.957Z,7.70
2018-09-12T05:35:13.527Z,7.00
2018-09-12T05:37:41.094Z,7.57
2018-09-12T05:40:08.817Z,7.62
2018-09-12T05:42:36.379Z,6.70
2018-09-12T05:45:03.944Z,8.00
2018-09-12T05:47:32.277Z,6.30
2018-09-12T05:49:59.850Z,6.83
2018-09-12T05:52:27.429Z,6.97
2018-09-12T05:54:54.986Z,6.93
2018-09-12T05:57:23.318Z,6.80
2018-09-12T05:59:50.882Z,9.13
2018-09-12T06:02:18.449Z,7.40
2018-09-12T06:04:46.013Z,7.60
2018-09-12T06:07:13.765Z,7.93
2018-09-12T06:09:41.168Z,6.80
2018-09-12T06:12:08.736Z,7.40
2018-09-12T06:14:36.297Z,7.37
2018-09-12T06:17:03.863Z,7.67
2018-09-12T06:19:31.431Z,6.80
2018-09-12T06:21:59.004Z,7.60
2018-09-12T06:24:26.565Z,6.60
2018-09-12T06:26:54.140Z,7.50
2018-09-12T06:29:22.674Z,6.57
2018-09-12T06:31:50.234Z,6.70
2018-09-12T06:34:17.804Z,6.90
2018-09-12T06:36:46.326Z,7.10
2018-09-12T06:39:14.726Z,7.30
2018-09-12T06:41:42.250Z,7.20
2018-09-12T06:44:11.764Z,7.47
2018-09-12T06:46:40.094Z,6.70
2018-09-12T06:49:07.658Z,6.70
2018-09-12T06:51:35.225Z,7.47
2018-09-12T06:54:03.737Z,7.70
2018-09-12T06:56:32.070Z,14.63
2018-09-12T06:59:00.549Z,6.97
2018-09-12T07:01:28.125Z,32.38
2018-09-12T07:03:56.625Z,18.73
2018-09-12T07:06:24.964Z,7.37
2018-09-12T07:08:52.535Z,37.67
2018-09-12T07:11:20.110Z,9.30
2018-09-12T07:13:47.677Z,10.40
2018-09-12T07:16:16.938Z,18.67
2018-09-12T07:18:44.497Z,7.10
2018-09-12T07:21:12.994Z,6.80
2018-09-12T07:23:40.556Z,12.90
2018-09-12T07:26:08.891Z,5.97
2018-09-12T07:28:36.467Z,10.27
2018-09-12T07:31:04.034Z,6.10
2018-09-12T07:33:31.598Z,6.40
2018-09-12T07:36:01.077Z,11.87
2018-09-12T07:38:28.633Z,6.10
2018-09-12T07:40:57.173Z,27.60
2018-09-12T07:43:24.742Z,14.30
2018-09-12T07:45:52.306Z,7.20
2018-09-12T07:48:19.865Z,5.60
2018-09-12T07:50:47.435Z,6.20
2018-09-12T07:53:14.998Z,11.70
2018-09-12T07:55:42.561Z,6.13
2018-09-12T07:58:10.125Z,11.77
2018-09-12T08:00:37.712Z,9.20
2018-09-12T08:03:06.046Z,9.97
2018-09-12T08:05:33.610Z,7.87
2018-09-12T08:08:01.168Z,6.37
2018-09-12T08:10:29.665Z,5.77
2018-09-12T08:12:57.228Z,7.47
2018-09-12T08:15:24.787Z,5.80
2018-09-12T08:17:52.350Z,6.10
2018-09-12T08:20:19.915Z,7.50
2018-09-12T08:22:47.483Z,7.00
2018-09-12T08:25:15.045Z,6.37
2018-09-12T08:27:42.633Z,6.43
2018-09-12T08:30:10.207Z,7.00
2018-09-12T08:32:37.784Z,6.47
2018-09-12T08:35:05.350Z,8.00
2018-09-12T08:37:33.686Z,6.07
2018-09-12T08:40:01.246Z,9.30
2018-09-12T08:42:28.849Z,7.30
2018-09-12T08:44:56.409Z,6.40
2018-09-12T08:47:24.755Z,6.60
2018-09-12T08:49:52.317Z,6.17
2018-09-12T08:52:19.879Z,7.90
2018-09-12T08:54:48.210Z,5.97
2018-09-12T08:57:15.785Z,6.00
2018-09-12T08:59:43.359Z,7.10
2018-09-12T09:02:10.934Z,7.20
2018-09-12T09:04:38.497Z,5.50
2018-09-12T09:07:06.837Z,6.77
2018-09-12T09:09:34.405Z,5.83
2018-09-12T09:12:01.973Z,6.03
2018-09-12T09:14:31.473Z,7.00
2018-09-12T09:16:59.054Z,6.03
2018-09-12T09:19:26.617Z,6.67
2018-09-12T09:21:55.125Z,5.40
2018-09-12T09:24:22.685Z,5.40
2018-09-12T09:26:50.261Z,4.90
2018-09-12T09:29:17.892Z,5.63
2018-09-12T09:31:46.389Z,5.83
2018-09-12T09:34:13.953Z,5.80
2018-09-12T09:36:42.495Z,6.50
2018-09-12T09:39:10.070Z,5.00
2018-09-12T09:41:37.641Z,4.90
2018-09-12T09:44:05.220Z,5.10
2018-09-12T09:46:32.804Z,4.67
2018-09-12T09:49:00.378Z,5.23
2018-09-12T09:51:28.163Z,4.97
2018-09-12T09:53:55.721Z,6.23
2018-09-12T09:56:23.300Z,5.53
2018-09-12T09:58:50.867Z,4.60
2018-09-12T10:04:13.058Z,6.00
2018-09-12T10:06:40.678Z,5.27
2018-09-12T10:09:08.255Z,5.07
2018-09-12T10:11:36.594Z,3.73
2018-09-12T10:14:06.132Z,3.60
2018-09-12T10:16:34.662Z,3.70
2018-09-12T10:19:02.310Z,3.63
2018-09-12T10:21:29.971Z,3.33
2018-09-12T10:23:57.569Z,3.97
2018-09-12T10:26:25.163Z,4.00
2018-09-12T10:28:52.752Z,3.53
2018-09-12T10:31:20.329Z,3.30
2018-09-12T10:33:47.932Z,3.60
2018-09-12T10:36:15.511Z,3.70
2018-09-12T10:38:43.090Z,3.27
2018-09-12T10:41:11.722Z,2.97
2018-09-12T10:43:39.372Z,3.90
2018-09-12T10:46:06.953Z,3.53
2018-09-12T10:48:34.606Z,3.87
2018-09-12T10:51:02.942Z,3.63
2018-09-12T10:53:30.572Z,3.10
2018-09-12T10:55:58.159Z,3.50
2018-09-12T10:58:25.739Z,3.33
2018-09-12T11:00:53.333Z,3.50
2018-09-12T11:03:20.903Z,4.37
2018-09-12T11:05:48.486Z,3.30
2018-09-12T11:08:16.072Z,3.70
2018-09-12T11:10:44.439Z,3.70
2018-09-12T11:13:12.011Z,3.27
2018-09-12T11:15:39.587Z,3.87
2018-09-12T11:18:07.163Z,3.53
2018-09-12T11:20:34.763Z,3.17
2018-09-12T11:23:02.390Z,3.60
2018-09-12T11:25:29.971Z,3.83
2018-09-12T11:27:57.606Z,3.60
2018-09-12T11:30:25.178Z,3.87
2018-09-12T11:32:52.773Z,3.60
2018-09-12T11:35:21.137Z,3.33
2018-09-12T11:37:48.731Z,3.17
2018-09-12T11:40:16.361Z,3.60
2018-09-12T11:42:44.763Z,3.20
2018-09-12T11:45:12.432Z,3.00
2018-09-12T11:47:40.970Z,2.87
2018-09-12T11:50:10.463Z,3.33
2018-09-12T11:52:38.059Z,2.80
2018-09-12T11:55:06.718Z,2.90
2018-09-12T11:57:34.299Z,3.20
2018-09-12T12:00:06.387Z,3.30
2018-09-12T12:02:37.348Z,3.20
2018-09-12T12:05:07.510Z,3.50
2018-09-12T12:07:35.903Z,3.50
2018-09-12T12:10:12.210Z,3.20
2018-09-12T12:12:39.818Z,2.63
2018-09-12T12:15:07.485Z,3.00
2018-09-12T12:17:35.934Z,2.70
2018-09-12T12:20:04.504Z,2.77
2018-09-12T12:22:32.208Z,3.00
2018-09-12T12:25:06.139Z,2.90
2018-09-12T12:27:33.731Z,3.30
2018-09-12T12:30:02.743Z,3.20
2018-09-12T12:32:32.492Z,3.20
2018-09-12T12:35:00.890Z,3.20
2018-09-12T12:37:29.475Z,3.33
2018-09-12T12:40:02.518Z,3.10
2018-09-12T12:42:30.113Z,3.27
2018-09-12T12:44:57.695Z,3.40
2018-09-12T12:47:25.494Z,3.40
2018-09-12T12:49:59.181Z,3.60
2018-09-12T12:52:26.945Z,2.97
2018-09-12T12:54:54.704Z,3.40
2018-09-12T12:57:22.367Z,2.93
2018-09-12T12:59:49.951Z,3.33
2018-09-12T13:02:17.568Z,3.40
2018-09-12T13:04:45.213Z,3.47
2018-09-12T13:07:13.483Z,3.53
2018-09-12T13:09:41.883Z,4.10
2018-09-12T13:12:10.214Z,3.00
2018-09-12T13:14:38.745Z,3.00
2018-09-12T13:17:08.205Z,3.53
2018-09-12T13:19:35.807Z,3.00
2018-09-12T13:22:03.380Z,3.43
2018-09-12T13:24:30.964Z,3.70
2018-09-12T13:26:59.522Z,3.50
2018-09-12T13:29:28.988Z,3.30
2018-09-12T13:31:57.538Z,4.20
2018-09-12T13:34:25.807Z,3.13
2018-09-12T13:36:53.898Z,3.20
2018-09-12T13:39:23.054Z,3.00
2018-09-12T13:41:51.709Z,3.80
2018-09-12T13:44:20.196Z,3.43
2018-09-12T13:46:47.737Z,3.60
2018-09-12T13:49:15.301Z,2.60
2018-09-12T13:51:42.942Z,3.83
2018-09-12T13:54:12.527Z,3.03
2018-09-12T13:56:41.810Z,3.00
2018-09-12T13:59:09.363Z,3.03
2018-09-12T14:01:36.998Z,3.00
2018-09-12T14:04:05.588Z,3.17
2018-09-12T14:06:35.101Z,3.03
2018-09-12T14:09:02.741Z,2.60
2018-09-12T14:11:31.103Z,3.20
2018-09-12T14:13:58.726Z,2.87
2018-09-12T14:16:27.067Z,3.10
2018-09-12T14:18:54.649Z,3.00
2018-09-12T14:21:23.202Z,2.90
2018-09-12T14:23:50.873Z,3.10
2018-09-12T14:26:18.434Z,2.73
2018-09-12T14:28:46.005Z,3.03
2018-09-12T14:31:13.731Z,3.53
2018-09-12T14:33:41.351Z,3.97
2018-09-12T14:36:09.914Z,2.80
2018-09-12T14:38:38.294Z,3.07
2018-09-12T14:41:05.889Z,3.07
2018-09-12T14:43:33.580Z,3.10
2018-09-12T14:46:01.166Z,3.33
2018-09-12T14:48:29.527Z,4.93
2018-09-12T14:50:57.102Z,3.27
2018-09-12T14:53:24.698Z,2.90
2018-09-12T14:55:52.286Z,3.30
2018-09-12T14:58:20.854Z,3.90
2018-09-12T15:00:48.445Z,3.40
2018-09-12T15:03:16.012Z,3.53
2018-09-12T15:05:43.582Z,3.30
2018-09-12T15:08:13.529Z,3.00
2018-09-12T15:10:41.136Z,3.90
2018-09-12T15:13:08.713Z,3.30
2018-09-12T15:15:36.315Z,3.00
2018-09-12T15:18:03.945Z,3.37
2018-09-12T15:20:31.526Z,3.00
2018-09-12T15:23:00.245Z,3.00
2018-09-12T15:25:27.839Z,3.40
2018-09-12T15:27:57.472Z,3.20
2018-09-12T15:30:25.229Z,2.90
2018-09-12T15:32:58.409Z,3.20
2018-09-12T15:35:26.592Z,3.53
2018-09-12T15:37:58.999Z,3.70
2018-09-12T15:40:27.317Z,3.50
2018-09-12T15:42:57.123Z,3.07
2018-09-12T15:45:26.462Z,2.97
2018-09-12T15:47:58.481Z,3.60
2018-09-12T15:50:28.560Z,3.30
2018-09-12T15:52:56.659Z,3.60
2018-09-12T15:55:24.261Z,3.37
2018-09-12T15:57:51.888Z,3.77
2018-09-12T16:00:19.491Z,3.23
2018-09-12T16:02:48.111Z,3.43
2018-09-12T16:05:15.648Z,3.70
2018-09-12T16:07:44.025Z,4.00
2018-09-12T16:10:12.424Z,4.17
2018-09-12T16:12:40.010Z,3.57
2018-09-12T16:15:07.666Z,3.87
2018-09-12T16:17:35.911Z,3.60
2018-09-12T16:20:03.499Z,3.57
2018-09-12T16:22:31.078Z,4.10
2018-09-12T16:24:58.754Z,4.33
2018-09-12T16:27:26.331Z,3.67
2018-09-12T16:29:53.910Z,4.27
2018-09-12T16:32:22.460Z,3.63
2018-09-12T16:34:50.060Z,4.73
2018-09-12T16:37:17.636Z,3.70
2018-09-12T16:39:45.238Z,4.70
2018-09-12T16:42:13.583Z,3.70
2018-09-12T16:44:41.181Z,4.20
2018-09-12T16:47:08.781Z,4.50
2018-09-12T16:49:36.360Z,4.20
2018-09-12T16:52:05.878Z,4.27
2018-09-12T16:54:33.461Z,4.67
2018-09-12T16:57:01.031Z,5.23
2018-09-12T16:59:28.622Z,4.60
2018-09-12T17:01:56.230Z,4.23
2018-09-12T17:04:23.831Z,4.60
2018-09-12T17:06:51.409Z,4.57
2018-09-12T17:09:18.992Z,4.80
2018-09-12T17:11:48.326Z,5.37
2018-09-12T17:14:15.930Z,5.07
2018-09-12T17:16:43.523Z,4.77
2018-09-12T17:19:11.864Z,4.70
2018-09-12T17:21:39.465Z,4.37
2018-09-12T17:24:07.108Z,4.40
2018-09-12T17:26:35.470Z,4.60
2018-09-12T17:29:03.073Z,5.30
2018-09-12T17:31:30.684Z,4.83
2018-09-12T17:33:59.187Z,5.40
2018-09-12T17:36:26.761Z,5.47
2018-09-12T17:38:54.343Z,4.83
2018-09-12T17:41:21.949Z,5.87
2018-09-12T17:43:49.548Z,5.30
2018-09-12T17:46:17.152Z,5.23
2018-09-12T17:48:45.830Z,4.70
2018-09-12T17:51:13.423Z,5.32
2018-09-12T17:53:41.009Z,5.10
2018-09-12T17:56:08.759Z,5.63
2018-09-12T17:58:36.271Z,4.93
2018-09-12T18:01:03.858Z,4.90
2018-09-12T18:03:31.437Z,5.50
2018-09-12T18:05:59.100Z,4.57
2018-09-12T18:08:26.680Z,4.90
2018-09-12T18:10:54.352Z,5.10
2018-09-12T18:13:21.931Z,6.17
2018-09-12T18:15:51.505Z,5.60
2018-09-12T18:18:19.131Z,6.10
2018-09-12T18:20:46.719Z,6.20
2018-09-12T18:23:14.285Z,7.03
2018-09-12T18:25:41.859Z,6.40
2018-09-12T18:28:10.247Z,6.00
2018-09-12T18:30:37.818Z,6.57
2018-09-12T18:33:05.410Z,7.33
2018-09-12T18:35:33.013Z,6.50
2018-09-12T18:38:00.659Z,6.77
2018-09-12T18:40:28.254Z,6.00
2018-09-12T18:42:55.872Z,7.13
2018-09-12T18:45:23.433Z,7.37
2018-09-12T18:47:53.016Z,6.90
2018-09-12T18:50:20.679Z,6.73
2018-09-12T18:52:48.321Z,7.30
2018-09-12T18:55:15.905Z,7.10
2018-09-12T18:57:43.474Z,7.00
2018-09-12T19:00:11.853Z,7.40
2018-09-12T19:02:39.419Z,7.23
2018-09-12T19:05:08.682Z,7.13
2018-09-12T19:07:36.246Z,7.57
2018-09-12T19:10:03.933Z,7.53
2018-09-12T19:12:32.269Z,7.20
2018-09-12T19:14:59.847Z,7.07
2018-09-12T19:17:27.438Z,9.27
2018-09-12T19:19:55.047Z,8.47
2018-09-12T19:22:22.655Z,11.73
2018-09-12T19:24:50.290Z,9.33
2018-09-12T19:27:17.870Z,8.43
2018-09-12T19:29:46.410Z,9.47
2018-09-12T19:32:14.003Z,9.60
2018-09-12T19:34:41.569Z,8.97
2018-09-12T19:37:09.169Z,9.63
2018-09-12T19:39:36.861Z,9.40
2018-09-12T19:42:04.500Z,9.10
2018-09-12T19:44:32.042Z,9.50
2018-09-12T19:46:59.632Z,8.90
2018-09-12T19:49:27.201Z,8.60
2018-09-12T19:51:56.471Z,8.85
2018-09-12T19:54:24.049Z,8.53
2018-09-12T19:56:51.634Z,7.90
2018-09-12T19:59:20.203Z,10.10
2018-09-12T20:01:49.282Z,8.40
2018-09-12T20:04:16.861Z,8.40
2018-09-12T20:06:44.475Z,8.17
2018-09-12T20:09:14.003Z,13.37
2018-09-12T20:11:41.597Z,7.83
2018-09-12T20:14:09.193Z,8.63
2018-09-12T20:16:36.758Z,8.90
2018-09-12T20:19:04.383Z,8.20
2018-09-12T20:21:32.882Z,8.53
2018-09-12T20:24:01.509Z,7.17
2018-09-12T20:26:29.055Z,7.67
2018-09-12T20:28:56.633Z,8.43
2018-09-12T20:31:24.226Z,9.00
2018-09-12T20:33:51.810Z,7.80
2018-09-12T20:36:20.373Z,8.00
2018-09-12T20:38:47.958Z,7.70
2018-09-12T20:41:15.534Z,7.93
2018-09-12T20:43:43.118Z,8.23
2018-09-12T20:46:10.687Z,8.40
2018-09-12T20:48:38.255Z,8.40
2018-09-12T20:51:05.871Z,10.13
2018-09-12T20:53:33.569Z,9.00
2018-09-12T20:56:01.160Z,10.10
2018-09-12T20:58:28.768Z,11.10
2018-09-12T21:00:56.346Z,10.03
2018-09-12T21:03:23.988Z,9.90
2018-09-12T21:05:51.581Z,12.03
2018-09-12T21:08:19.177Z,10.20
2018-09-12T21:10:46.806Z,9.87
2018-09-12T21:13:14.397Z,9.93
2018-09-12T21:15:41.974Z,9.27
2018-09-12T21:18:09.568Z,10.63
2018-09-12T21:20:37.179Z,10.13
2018-09-12T21:23:04.759Z,10.20
2018-09-12T21:25:32.325Z,10.10
2018-09-12T21:27:59.893Z,11.07
2018-09-12T21:30:27.453Z,10.60
2018-09-12T21:32:55.034Z,10.10
2018-09-12T21:35:23.379Z,9.93
2018-09-12T21:37:52.890Z,10.40
2018-09-12T21:40:20.461Z,10.63
2018-09-12T21:42:48.039Z,10.10
2018-09-12T21:45:15.601Z,9.63
2018-09-12T21:47:43.169Z,9.83
2018-09-12T21:50:10.729Z,9.40
2018-09-12T21:52:38.294Z,9.63
2018-09-12T21:55:06.813Z,9.60
2018-09-12T21:57:34.374Z,8.90
2018-09-12T22:00:01.934Z,8.93
2018-09-12T22:02:29.501Z,9.80
2018-09-12T22:04:57.065Z,10.83
2018-09-12T22:07:24.633Z,9.87
2018-09-12T22:09:52.957Z,8.30
2018-09-12T22:12:21.456Z,11.10
2018-09-12T22:14:49.018Z,9.50
2018-09-12T22:17:16.585Z,9.60
2018-09-12T22:19:44.146Z,8.90
2018-09-12T22:22:11.718Z,10.00
2018-09-12T22:24:39.281Z,9.67
2018-09-12T22:27:07.617Z,9.50
2018-09-12T22:29:37.129Z,9.93
2018-09-12T22:32:04.693Z,10.30
2018-09-12T22:34:32.262Z,9.07
2018-09-12T22:36:59.831Z,9.10
2018-09-12T22:39:27.392Z,9.50
2018-09-12T22:41:55.725Z,10.13
2018-09-12T22:44:23.287Z,9.07
2018-09-12T22:46:50.850Z,9.23
2018-09-12T22:49:18.412Z,9.30
2018-09-12T22:51:45.977Z,9.33
2018-09-12T22:54:15.481Z,10.43
2018-09-12T22:56:43.074Z,9.57
2018-09-12T22:59:10.633Z,8.90
2018-09-12T23:01:38.192Z,10.30
2018-09-12T23:04:05.756Z,10.03
2018-09-12T23:06:33.326Z,9.50
2018-09-12T23:09:00.899Z,10.27
2018-09-12T23:11:29.424Z,9.57
2018-09-12T23:13:56.989Z,10.23
2018-09-12T23:16:24.555Z,9.83
2018-09-12T23:18:52.134Z,9.80
2018-09-12T23:21:19.697Z,9.90
2018-09-12T23:23:48.194Z,10.33
2018-09-12T23:26:15.753Z,9.50
2018-09-12T23:28:43.351Z,10.20
2018-09-12T23:31:10.917Z,9.87
2018-09-12T23:33:39.395Z,9.80
2018-09-12T23:36:06.961Z,10.90
2018-09-12T23:38:36.483Z,10.07
2018-09-12T23:41:04.054Z,9.63
2018-09-12T23:43:31.633Z,11.60
2018-09-12T23:45:59.218Z,10.50
2018-09-12T23:48:26.783Z,9.90
2018-09-12T23:50:54.361Z,11.07
2018-09-12T23:53:21.921Z,10.13
2018-09-12T23:55:50.477Z,10.93
2018-09-12T23:58:18.042Z,10.63
